Churubusco, Indiana
Current Conditions -  °F | °C
As of 12:15 PM on Thursday 18 Dec 2014 (Local Time) from KGWB Reporting Station
Overcast Overcast  
Wind Chill: 21°   Ceiling: 1200
Heat Index: 28°   Visibility: 7mi
Dew Point: 23°   Wind: 7mph
Humidity: 80%   Direction: 250°WSW
Pressure: 30.25"   Gusts: NA
Location:  41.23°N, 85.32°W
Report Text: KGWB 181715Z AUTO 25006KT 7SM OVC012 M02/M05 A3025 RMK AO2
Loading
Personal Weather Stations






























Interactive Weather Map New forecast layout! Learn more

10-Day Weather Forecast

Advertisements
Track Severe Weather on mobile